sensor_id;sensor_type;location;lat;lon;timestamp;P1;durP1;ratioP1;P2;durP2;ratioP2
50363;SDS011;36272;59.400;17.982;2023-07-13T00:01:13;7.22;;;4.13;;
50363;SDS011;36272;59.400;17.982;2023-07-13T00:06:15;6.25;;;4.25;;
50363;SDS011;36272;59.400;17.982;2023-07-13T00:11:17;5.40;;;4.07;;
50363;SDS011;36272;59.400;17.982;2023-07-13T00:16:18;8.70;;;4.38;;
50363;SDS011;36272;59.400;17.982;2023-07-13T00:21:21;10.65;;;5.20;;
50363;SDS011;36272;59.400;17.982;2023-07-13T00:26:23;7.28;;;4.47;;
50363;SDS011;36272;59.400;17.982;2023-07-13T00:31:30;7.50;;;4.60;;
50363;SDS011;36272;59.400;17.982;2023-07-13T00:36:31;9.40;;;4.82;;
50363;SDS011;36272;59.400;17.982;2023-07-13T00:41:33;7.30;;;4.60;;
50363;SDS011;36272;59.400;17.982;2023-07-13T00:46:35;7.50;;;4.38;;
50363;SDS011;36272;59.400;17.982;2023-07-13T00:51:48;8.23;;;4.70;;
50363;SDS011;36272;59.400;17.982;2023-07-13T00:56:53;8.43;;;4.22;;
50363;SDS011;36272;59.400;17.982;2023-07-13T01:01:59;5.93;;;4.45;;
50363;SDS011;36272;59.400;17.982;2023-07-13T01:07:02;7.47;;;3.75;;
50363;SDS011;36272;59.400;17.982;2023-07-13T01:12:04;6.38;;;4.40;;
50363;SDS011;36272;59.400;17.982;2023-07-13T01:17:07;8.68;;;4.40;;
50363;SDS011;36272;59.400;17.982;2023-07-13T01:22:12;6.13;;;4.30;;
50363;SDS011;36272;59.400;17.982;2023-07-13T01:27:19;9.38;;;4.60;;
50363;SDS011;36272;59.400;17.982;2023-07-13T01:32:34;8.38;;;4.88;;
50363;SDS011;36272;59.400;17.982;2023-07-13T01:37:35;6.60;;;4.20;;
50363;SDS011;36272;59.400;17.982;2023-07-13T01:42:37;7.13;;;4.07;;
50363;SDS011;36272;59.400;17.982;2023-07-13T01:47:40;6.15;;;4.30;;
50363;SDS011;36272;59.400;17.982;2023-07-13T01:52:42;11.23;;;4.63;;
50363;SDS011;36272;59.400;17.982;2023-07-13T01:57:43;7.82;;;4.07;;
50363;SDS011;36272;59.400;17.982;2023-07-13T02:02:50;7.47;;;4.28;;
50363;SDS011;36272;59.400;17.982;2023-07-13T02:07:52;4.72;;;4.05;;
50363;SDS011;36272;59.400;17.982;2023-07-13T02:12:54;6.97;;;4.80;;
50363;SDS011;36272;59.400;17.982;2023-07-13T02:17:56;12.20;;;4.60;;
50363;SDS011;36272;59.400;17.982;2023-07-13T02:22:58;7.97;;;4.63;;
50363;SDS011;36272;59.400;17.982;2023-07-13T02:27:59;8.43;;;4.70;;
50363;SDS011;36272;59.400;17.982;2023-07-13T02:33:01;6.78;;;5.10;;
50363;SDS011;36272;59.400;17.982;2023-07-13T02:38:03;11.93;;;5.22;;
50363;SDS011;36272;59.400;17.982;2023-07-13T02:43:05;7.78;;;5.03;;
50363;SDS011;36272;59.400;17.982;2023-07-13T02:48:06;9.13;;;5.25;;
50363;SDS011;36272;59.400;17.982;2023-07-13T02:53:08;11.82;;;5.50;;
50363;SDS011;36272;59.400;17.982;2023-07-13T02:58:09;8.52;;;5.05;;
50363;SDS011;36272;59.400;17.982;2023-07-13T03:03:12;10.20;;;5.40;;
50363;SDS011;36272;59.400;17.982;2023-07-13T03:08:15;8.00;;;5.30;;
50363;SDS011;36272;59.400;17.982;2023-07-13T03:13:17;7.68;;;4.72;;
50363;SDS011;36272;59.400;17.982;2023-07-13T03:18:19;8.32;;;5.18;;
50363;SDS011;36272;59.400;17.982;2023-07-13T03:23:21;9.57;;;5.20;;
50363;SDS011;36272;59.400;17.982;2023-07-13T03:28:23;10.23;;;5.57;;
50363;SDS011;36272;59.400;17.982;2023-07-13T03:33:25;9.13;;;5.60;;
50363;SDS011;36272;59.400;17.982;2023-07-13T03:38:27;11.98;;;5.78;;
50363;SDS011;36272;59.400;17.982;2023-07-13T03:43:28;14.52;;;6.00;;
50363;SDS011;36272;59.400;17.982;2023-07-13T03:48:30;7.07;;;5.18;;
50363;SDS011;36272;59.400;17.982;2023-07-13T03:53:32;13.02;;;5.63;;
50363;SDS011;36272;59.400;17.982;2023-07-13T03:58:37;10.68;;;5.63;;
50363;SDS011;36272;59.400;17.982;2023-07-13T04:03:40;10.13;;;5.28;;
50363;SDS011;36272;59.400;17.982;2023-07-13T04:08:42;7.43;;;5.00;;
50363;SDS011;36272;59.400;17.982;2023-07-13T04:13:44;11.40;;;5.07;;
50363;SDS011;36272;59.400;17.982;2023-07-13T04:18:47;12.27;;;4.30;;
50363;SDS011;36272;59.400;17.982;2023-07-13T04:23:50;11.48;;;4.93;;
50363;SDS011;36272;59.400;17.982;2023-07-13T04:28:51;10.30;;;4.22;;
50363;SDS011;36272;59.400;17.982;2023-07-13T04:33:53;14.13;;;4.10;;
50363;SDS011;36272;59.400;17.982;2023-07-13T04:38:55;8.23;;;4.35;;
50363;SDS011;36272;59.400;17.982;2023-07-13T04:43:56;9.75;;;4.00;;
50363;SDS011;36272;59.400;17.982;2023-07-13T04:48:58;7.70;;;3.60;;
50363;SDS011;36272;59.400;17.982;2023-07-13T04:54:00;10.02;;;4.22;;
50363;SDS011;36272;59.400;17.982;2023-07-13T04:59:01;7.57;;;3.53;;
50363;SDS011;36272;59.400;17.982;2023-07-13T05:04:03;11.15;;;4.10;;
50363;SDS011;36272;59.400;17.982;2023-07-13T05:09:05;7.07;;;3.83;;
50363;SDS011;36272;59.400;17.982;2023-07-13T05:14:08;10.15;;;3.65;;
50363;SDS011;36272;59.400;17.982;2023-07-13T05:19:11;10.13;;;3.40;;
50363;SDS011;36272;59.400;17.982;2023-07-13T05:24:13;10.75;;;3.67;;
50363;SDS011;36272;59.400;17.982;2023-07-13T05:29:15;6.88;;;3.40;;
50363;SDS011;36272;59.400;17.982;2023-07-13T05:34:16;4.63;;;2.70;;
50363;SDS011;36272;59.400;17.982;2023-07-13T05:39:18;7.30;;;2.85;;
50363;SDS011;36272;59.400;17.982;2023-07-13T05:44:20;7.20;;;3.15;;
50363;SDS011;36272;59.400;17.982;2023-07-13T05:49:22;5.95;;;3.08;;
50363;SDS011;36272;59.400;17.982;2023-07-13T05:54:24;4.85;;;2.63;;
50363;SDS011;36272;59.400;17.982;2023-07-13T05:59:26;11.65;;;3.40;;
50363;SDS011;36272;59.400;17.982;2023-07-13T06:04:27;11.85;;;3.28;;
50363;SDS011;36272;59.400;17.982;2023-07-13T06:09:29;7.22;;;2.60;;
50363;SDS011;36272;59.400;17.982;2023-07-13T06:14:31;8.48;;;2.75;;
50363;SDS011;36272;59.400;17.982;2023-07-13T06:19:32;5.68;;;2.50;;
50363;SDS011;36272;59.400;17.982;2023-07-13T06:24:34;6.90;;;2.97;;
50363;SDS011;36272;59.400;17.982;2023-07-13T06:29:35;7.65;;;2.33;;
50363;SDS011;36272;59.400;17.982;2023-07-13T06:34:37;6.15;;;2.22;;
50363;SDS011;36272;59.400;17.982;2023-07-13T06:39:39;13.27;;;2.60;;
50363;SDS011;36272;59.400;17.982;2023-07-13T06:44:40;7.10;;;2.33;;
50363;SDS011;36272;59.400;17.982;2023-07-13T06:49:42;5.85;;;2.60;;
50363;SDS011;36272;59.400;17.982;2023-07-13T06:54:44;5.47;;;2.42;;
50363;SDS011;36272;59.400;17.982;2023-07-13T06:59:45;7.97;;;2.30;;
50363;SDS011;36272;59.400;17.982;2023-07-13T07:04:47;7.93;;;2.88;;
50363;SDS011;36272;59.400;17.982;2023-07-13T07:09:49;8.40;;;2.53;;
50363;SDS011;36272;59.400;17.982;2023-07-13T07:14:50;8.15;;;2.20;;
50363;SDS011;36272;59.400;17.982;2023-07-13T07:19:52;7.43;;;2.30;;
50363;SDS011;36272;59.400;17.982;2023-07-13T07:24:57;9.97;;;2.40;;
50363;SDS011;36272;59.400;17.982;2023-07-13T07:29:58;7.15;;;2.05;;
50363;SDS011;36272;59.400;17.982;2023-07-13T07:35:00;4.88;;;2.00;;
50363;SDS011;36272;59.400;17.982;2023-07-13T07:40:02;10.68;;;2.30;;
50363;SDS011;36272;59.400;17.982;2023-07-13T07:45:04;7.18;;;2.00;;
50363;SDS011;36272;59.400;17.982;2023-07-13T07:50:06;9.40;;;2.17;;
50363;SDS011;36272;59.400;17.982;2023-07-13T07:55:08;6.60;;;2.10;;
50363;SDS011;36272;59.400;17.982;2023-07-13T08:00:09;7.20;;;2.10;;
50363;SDS011;36272;59.400;17.982;2023-07-13T08:05:12;8.90;;;1.98;;
50363;SDS011;36272;59.400;17.982;2023-07-13T08:10:13;9.20;;;2.10;;
50363;SDS011;36272;59.400;17.982;2023-07-13T08:15:16;7.85;;;2.15;;
50363;SDS011;36272;59.400;17.982;2023-07-13T08:20:18;3.22;;;1.90;;
50363;SDS011;36272;59.400;17.982;2023-07-13T08:25:20;5.63;;;1.90;;
50363;SDS011;36272;59.400;17.982;2023-07-13T08:30:23;8.77;;;1.98;;
50363;SDS011;36272;59.400;17.982;2023-07-13T08:35:24;8.32;;;1.85;;
50363;SDS011;36272;59.400;17.982;2023-07-13T08:40:27;4.47;;;1.63;;
50363;SDS011;36272;59.400;17.982;2023-07-13T08:45:32;7.80;;;1.88;;
50363;SDS011;36272;59.400;17.982;2023-07-13T08:56:19;4.50;;;1.67;;
50363;SDS011;36272;59.400;17.982;2023-07-13T09:01:43;4.30;;;1.70;;
50363;SDS011;36272;59.400;17.982;2023-07-13T09:17:11;5.18;;;1.80;;
50363;SDS011;36272;59.400;17.982;2023-07-13T09:22:23;2.90;;;1.58;;
50363;SDS011;36272;59.400;17.982;2023-07-13T09:27:34;5.85;;;1.60;;
50363;SDS011;36272;59.400;17.982;2023-07-13T09:32:45;5.22;;;1.70;;
50363;SDS011;36272;59.400;17.982;2023-07-13T09:37:51;2.83;;;1.40;;
50363;SDS011;36272;59.400;17.982;2023-07-13T09:42:58;6.55;;;1.73;;
50363;SDS011;36272;59.400;17.982;2023-07-13T09:48:04;5.25;;;2.08;;
50363;SDS011;36272;59.400;17.982;2023-07-13T09:53:17;8.25;;;1.65;;
50363;SDS011;36272;59.400;17.982;2023-07-13T09:58:21;8.27;;;2.20;;
50363;SDS011;36272;59.400;17.982;2023-07-13T10:03:29;4.47;;;1.40;;
50363;SDS011;36272;59.400;17.982;2023-07-13T10:08:37;6.38;;;1.73;;
50363;SDS011;36272;59.400;17.982;2023-07-13T10:13:42;6.70;;;1.70;;
50363;SDS011;36272;59.400;17.982;2023-07-13T10:18:48;7.00;;;1.83;;
50363;SDS011;36272;59.400;17.982;2023-07-13T10:23:55;5.93;;;2.22;;
50363;SDS011;36272;59.400;17.982;2023-07-13T10:29:08;5.72;;;1.58;;
50363;SDS011;36272;59.400;17.982;2023-07-13T10:34:15;6.88;;;1.67;;
50363;SDS011;36272;59.400;17.982;2023-07-13T10:39:20;6.20;;;1.42;;
50363;SDS011;36272;59.400;17.982;2023-07-13T10:44:28;7.18;;;1.40;;
50363;SDS011;36272;59.400;17.982;2023-07-13T10:49:31;5.05;;;1.33;;
50363;SDS011;36272;59.400;17.982;2023-07-13T10:54:34;5.30;;;1.60;;
50363;SDS011;36272;59.400;17.982;2023-07-13T10:59:36;3.70;;;1.33;;
50363;SDS011;36272;59.400;17.982;2023-07-13T11:04:44;5.25;;;1.52;;
50363;SDS011;36272;59.400;17.982;2023-07-13T11:09:52;3.42;;;1.27;;
50363;SDS011;36272;59.400;17.982;2023-07-13T11:25:31;5.30;;;1.45;;
50363;SDS011;36272;59.400;17.982;2023-07-13T11:30:43;3.78;;;0.70;;
50363;SDS011;36272;59.400;17.982;2023-07-13T11:41:24;6.22;;;1.75;;
50363;SDS011;36272;59.400;17.982;2023-07-13T11:46:27;4.53;;;1.70;;
50363;SDS011;36272;59.400;17.982;2023-07-13T11:51:31;5.07;;;1.02;;
50363;SDS011;36272;59.400;17.982;2023-07-13T11:56:35;6.57;;;1.52;;
50363;SDS011;36272;59.400;17.982;2023-07-13T12:01:42;3.83;;;1.33;;
50363;SDS011;36272;59.400;17.982;2023-07-13T12:06:47;2.85;;;1.17;;
50363;SDS011;36272;59.400;17.982;2023-07-13T12:12:12;3.85;;;1.15;;
50363;SDS011;36272;59.400;17.982;2023-07-13T12:17:27;4.32;;;1.10;;
50363;SDS011;36272;59.400;17.982;2023-07-13T12:22:29;5.18;;;1.40;;
50363;SDS011;36272;59.400;17.982;2023-07-13T12:27:31;3.97;;;1.40;;
50363;SDS011;36272;59.400;17.982;2023-07-13T12:32:34;4.90;;;1.20;;
50363;SDS011;36272;59.400;17.982;2023-07-13T12:37:36;3.40;;;1.13;;
50363;SDS011;36272;59.400;17.982;2023-07-13T12:42:37;5.75;;;1.83;;
50363;SDS011;36272;59.400;17.982;2023-07-13T12:47:41;3.50;;;0.87;;
50363;SDS011;36272;59.400;17.982;2023-07-13T12:52:49;2.70;;;1.15;;
50363;SDS011;36272;59.400;17.982;2023-07-13T12:57:54;2.97;;;1.30;;
50363;SDS011;36272;59.400;17.982;2023-07-13T13:03:07;1.70;;;0.93;;
50363;SDS011;36272;59.400;17.982;2023-07-13T13:08:20;2.63;;;1.00;;
50363;SDS011;36272;59.400;17.982;2023-07-13T13:13:21;5.32;;;1.35;;
50363;SDS011;36272;59.400;17.982;2023-07-13T13:18:23;5.18;;;1.38;;
50363;SDS011;36272;59.400;17.982;2023-07-13T13:23:25;2.50;;;1.13;;
50363;SDS011;36272;59.400;17.982;2023-07-13T13:28:26;6.07;;;1.38;;
50363;SDS011;36272;59.400;17.982;2023-07-13T13:33:28;4.45;;;1.55;;
50363;SDS011;36272;59.400;17.982;2023-07-13T13:38:31;3.20;;;1.10;;
50363;SDS011;36272;59.400;17.982;2023-07-13T13:43:34;4.13;;;1.30;;
50363;SDS011;36272;59.400;17.982;2023-07-13T13:48:36;3.33;;;1.30;;
50363;SDS011;36272;59.400;17.982;2023-07-13T13:53:38;3.80;;;1.30;;
50363;SDS011;36272;59.400;17.982;2023-07-13T13:58:40;3.55;;;1.17;;
50363;SDS011;36272;59.400;17.982;2023-07-13T14:03:42;11.15;;;1.42;;
50363;SDS011;36272;59.400;17.982;2023-07-13T14:08:44;4.05;;;1.30;;
50363;SDS011;36272;59.400;17.982;2023-07-13T14:13:55;3.55;;;0.88;;
50363;SDS011;36272;59.400;17.982;2023-07-13T14:18:59;2.53;;;0.98;;
50363;SDS011;36272;59.400;17.982;2023-07-13T14:24:01;3.33;;;1.23;;
50363;SDS011;36272;59.400;17.982;2023-07-13T14:29:04;2.38;;;1.10;;
50363;SDS011;36272;59.400;17.982;2023-07-13T14:34:13;5.75;;;1.42;;
50363;SDS011;36272;59.400;17.982;2023-07-13T14:39:19;2.00;;;0.90;;
50363;SDS011;36272;59.400;17.982;2023-07-13T14:44:27;4.72;;;1.17;;
50363;SDS011;36272;59.400;17.982;2023-07-13T14:54:43;4.43;;;1.25;;
50363;SDS011;36272;59.400;17.982;2023-07-13T14:59:46;3.15;;;1.30;;
50363;SDS011;36272;59.400;17.982;2023-07-13T15:04:49;3.13;;;1.40;;
50363;SDS011;36272;59.400;17.982;2023-07-13T15:09:50;5.80;;;1.20;;
50363;SDS011;36272;59.400;17.982;2023-07-13T15:14:52;5.63;;;1.40;;
50363;SDS011;36272;59.400;17.982;2023-07-13T15:19:55;4.18;;;1.13;;
50363;SDS011;36272;59.400;17.982;2023-07-13T15:24:57;3.85;;;1.35;;
50363;SDS011;36272;59.400;17.982;2023-07-13T15:29:59;5.22;;;1.42;;
50363;SDS011;36272;59.400;17.982;2023-07-13T15:35:00;3.75;;;1.13;;
50363;SDS011;36272;59.400;17.982;2023-07-13T15:40:02;7.25;;;1.45;;
50363;SDS011;36272;59.400;17.982;2023-07-13T15:45:04;7.88;;;1.20;;
50363;SDS011;36272;59.400;17.982;2023-07-13T15:50:15;6.32;;;1.35;;
50363;SDS011;36272;59.400;17.982;2023-07-13T15:55:23;5.35;;;2.15;;
50363;SDS011;36272;59.400;17.982;2023-07-13T16:00:27;7.00;;;1.95;;
50363;SDS011;36272;59.400;17.982;2023-07-13T16:05:29;4.23;;;2.00;;
50363;SDS011;36272;59.400;17.982;2023-07-13T16:10:36;3.58;;;1.55;;
50363;SDS011;36272;59.400;17.982;2023-07-13T16:15:41;10.60;;;2.17;;
50363;SDS011;36272;59.400;17.982;2023-07-13T16:20:46;5.78;;;1.92;;
50363;SDS011;36272;59.400;17.982;2023-07-13T16:25:49;7.10;;;1.60;;
50363;SDS011;36272;59.400;17.982;2023-07-13T16:30:58;5.22;;;1.65;;
50363;SDS011;36272;59.400;17.982;2023-07-13T16:35:59;6.68;;;1.50;;
50363;SDS011;36272;59.400;17.982;2023-07-13T16:41:06;5.40;;;1.67;;
50363;SDS011;36272;59.400;17.982;2023-07-13T16:46:10;3.63;;;1.80;;
50363;SDS011;36272;59.400;17.982;2023-07-13T16:51:15;4.22;;;2.10;;
50363;SDS011;36272;59.400;17.982;2023-07-13T16:56:17;3.42;;;1.60;;
50363;SDS011;36272;59.400;17.982;2023-07-13T17:01:20;3.40;;;1.60;;
50363;SDS011;36272;59.400;17.982;2023-07-13T17:06:23;4.05;;;1.70;;
50363;SDS011;36272;59.400;17.982;2023-07-13T17:11:26;4.43;;;1.73;;
50363;SDS011;36272;59.400;17.982;2023-07-13T17:16:31;6.28;;;2.05;;
50363;SDS011;36272;59.400;17.982;2023-07-13T17:21:33;3.30;;;1.60;;
50363;SDS011;36272;59.400;17.982;2023-07-13T17:26:34;4.72;;;1.50;;
50363;SDS011;36272;59.400;17.982;2023-07-13T17:31:36;3.92;;;1.80;;
50363;SDS011;36272;59.400;17.982;2023-07-13T17:36:39;7.28;;;1.55;;
50363;SDS011;36272;59.400;17.982;2023-07-13T17:41:41;10.90;;;2.17;;
50363;SDS011;36272;59.400;17.982;2023-07-13T17:46:44;5.30;;;2.10;;
50363;SDS011;36272;59.400;17.982;2023-07-13T17:51:52;4.55;;;1.60;;
50363;SDS011;36272;59.400;17.982;2023-07-13T17:56:54;6.00;;;1.67;;
50363;SDS011;36272;59.400;17.982;2023-07-13T18:01:56;10.73;;;1.83;;
50363;SDS011;36272;59.400;17.982;2023-07-13T18:06:58;10.32;;;1.90;;
50363;SDS011;36272;59.400;17.982;2023-07-13T18:12:10;5.18;;;1.52;;
50363;SDS011;36272;59.400;17.982;2023-07-13T18:22:22;8.80;;;1.92;;
50363;SDS011;36272;59.400;17.982;2023-07-13T18:27:25;2.83;;;1.50;;
50363;SDS011;36272;59.400;17.982;2023-07-13T18:32:27;5.00;;;1.40;;
50363;SDS011;36272;59.400;17.982;2023-07-13T18:37:28;6.97;;;1.67;;
50363;SDS011;36272;59.400;17.982;2023-07-13T18:42:32;3.03;;;1.67;;
50363;SDS011;36272;59.400;17.982;2023-07-13T18:47:35;7.18;;;1.67;;
50363;SDS011;36272;59.400;17.982;2023-07-13T18:52:37;5.97;;;1.90;;
50363;SDS011;36272;59.400;17.982;2023-07-13T18:57:39;7.03;;;1.70;;
50363;SDS011;36272;59.400;17.982;2023-07-13T19:02:58;4.68;;;1.75;;
50363;SDS011;36272;59.400;17.982;2023-07-13T19:08:00;6.53;;;1.50;;
50363;SDS011;36272;59.400;17.982;2023-07-13T19:13:07;5.30;;;1.73;;
50363;SDS011;36272;59.400;17.982;2023-07-13T19:18:12;4.50;;;1.40;;
50363;SDS011;36272;59.400;17.982;2023-07-13T19:28:37;5.18;;;1.60;;
50363;SDS011;36272;59.400;17.982;2023-07-13T19:33:42;3.90;;;1.38;;
50363;SDS011;36272;59.400;17.982;2023-07-13T19:38:45;3.83;;;1.33;;
50363;SDS011;36272;59.400;17.982;2023-07-13T19:43:53;3.47;;;1.23;;
50363;SDS011;36272;59.400;17.982;2023-07-13T19:48:55;3.20;;;1.30;;
50363;SDS011;36272;59.400;17.982;2023-07-13T19:54:19;4.47;;;1.48;;
50363;SDS011;36272;59.400;17.982;2023-07-13T19:59:23;4.07;;;1.90;;
50363;SDS011;36272;59.400;17.982;2023-07-13T20:04:26;2.65;;;1.13;;
50363;SDS011;36272;59.400;17.982;2023-07-13T20:09:28;3.10;;;1.63;;
50363;SDS011;36272;59.400;17.982;2023-07-13T20:14:35;4.93;;;1.50;;
50363;SDS011;36272;59.400;17.982;2023-07-13T20:19:36;1.35;;;1.15;;
50363;SDS011;36272;59.400;17.982;2023-07-13T20:24:38;3.90;;;1.33;;
50363;SDS011;36272;59.400;17.982;2023-07-13T20:29:40;5.03;;;1.38;;
50363;SDS011;36272;59.400;17.982;2023-07-13T20:34:41;3.22;;;1.52;;
50363;SDS011;36272;59.400;17.982;2023-07-13T20:39:43;3.85;;;1.42;;
50363;SDS011;36272;59.400;17.982;2023-07-13T20:44:45;2.85;;;1.67;;
50363;SDS011;36272;59.400;17.982;2023-07-13T20:49:47;2.85;;;1.67;;
50363;SDS011;36272;59.400;17.982;2023-07-13T20:54:49;3.05;;;1.60;;
50363;SDS011;36272;59.400;17.982;2023-07-13T20:59:54;5.97;;;1.77;;
50363;SDS011;36272;59.400;17.982;2023-07-13T21:04:55;3.27;;;1.63;;
50363;SDS011;36272;59.400;17.982;2023-07-13T21:09:57;5.00;;;1.77;;
50363;SDS011;36272;59.400;17.982;2023-07-13T21:14:58;4.00;;;1.73;;
50363;SDS011;36272;59.400;17.982;2023-07-13T21:20:00;5.45;;;1.63;;
50363;SDS011;36272;59.400;17.982;2023-07-13T21:25:13;5.60;;;1.98;;
50363;SDS011;36272;59.400;17.982;2023-07-13T21:30:20;3.42;;;1.70;;
50363;SDS011;36272;59.400;17.982;2023-07-13T21:35:33;9.85;;;2.10;;
50363;SDS011;36272;59.400;17.982;2023-07-13T21:40:40;2.90;;;1.73;;
50363;SDS011;36272;59.400;17.982;2023-07-13T21:45:44;6.40;;;2.20;;
50363;SDS011;36272;59.400;17.982;2023-07-13T21:50:51;4.78;;;2.13;;
50363;SDS011;36272;59.400;17.982;2023-07-13T21:56:02;3.05;;;1.98;;
50363;SDS011;36272;59.400;17.982;2023-07-13T22:01:04;3.90;;;1.98;;
50363;SDS011;36272;59.400;17.982;2023-07-13T22:06:20;3.47;;;2.00;;
50363;SDS011;36272;59.400;17.982;2023-07-13T22:11:24;3.97;;;1.98;;
50363;SDS011;36272;59.400;17.982;2023-07-13T22:16:28;5.70;;;2.10;;
50363;SDS011;36272;59.400;17.982;2023-07-13T22:21:30;3.83;;;1.95;;
50363;SDS011;36272;59.400;17.982;2023-07-13T22:26:33;4.68;;;2.00;;
50363;SDS011;36272;59.400;17.982;2023-07-13T22:31:41;3.63;;;1.90;;
50363;SDS011;36272;59.400;17.982;2023-07-13T22:36:43;4.63;;;2.10;;
50363;SDS011;36272;59.400;17.982;2023-07-13T22:41:46;4.70;;;2.20;;
50363;SDS011;36272;59.400;17.982;2023-07-13T22:46:48;2.45;;;2.00;;
50363;SDS011;36272;59.400;17.982;2023-07-13T22:51:55;4.72;;;1.80;;
50363;SDS011;36272;59.400;17.982;2023-07-13T22:56:58;5.22;;;2.05;;
50363;SDS011;36272;59.400;17.982;2023-07-13T23:01:59;3.15;;;2.10;;
50363;SDS011;36272;59.400;17.982;2023-07-13T23:07:04;7.20;;;2.10;;
50363;SDS011;36272;59.400;17.982;2023-07-13T23:12:11;6.93;;;1.98;;
50363;SDS011;36272;59.400;17.982;2023-07-13T23:17:12;3.40;;;1.75;;
50363;SDS011;36272;59.400;17.982;2023-07-13T23:22:19;3.13;;;1.60;;
50363;SDS011;36272;59.400;17.982;2023-07-13T23:27:27;4.07;;;1.95;;
50363;SDS011;36272;59.400;17.982;2023-07-13T23:32:29;9.60;;;2.20;;
50363;SDS011;36272;59.400;17.982;2023-07-13T23:37:31;4.05;;;2.15;;
50363;SDS011;36272;59.400;17.982;2023-07-13T23:42:32;5.00;;;2.22;;
50363;SDS011;36272;59.400;17.982;2023-07-13T23:47:34;4.10;;;2.17;;
50363;SDS011;36272;59.400;17.982;2023-07-13T23:52:35;5.35;;;1.90;;
50363;SDS011;36272;59.400;17.982;2023-07-13T23:57:37;5.50;;;2.20;;
